• Join FlightAware (Why Join?)
  • Login
  • US Flag 
05:25AM EDT


 

Airport Tracker/Info


-or-


 

Live Flight TrackerFlight Track Log ✈ DAL1781 ✈ 28-Apr-2013 ✈ KBOI - KSLC

Flight Track Log - Related Links

Times and Time Zones

All times are in EDT time to prevent confusion due to time zone crossing. See the DAL1781 flight status page for this flight to view local times or setup timezone preferences in your user account.

Time Position Orientation Groundspeed Altitude Reporting Facility
EDT Latitude Longitude Course Direction KTS MPH feet Rate Location/Type
05:31PM 43.4964 -116.2456 148° Southeast 290 334 8,600  Level Salt Lake Center
05:32PM 43.3452 -115.8645 120° Southeast  Level Estimated
05:32PM 43.4536 -116.1308 117° Southeast 318 366 11,500  Level Salt Lake Center
05:33PM 43.3263 -115.7108 100° East  Level FlightAware Approximate
05:33PM 43.4064 -116.0017 117° Southeast 388 447 13,400  Level Salt Lake Center
05:34PM 43.2515 -115.5937 121° Southeast  Level Estimated
05:34PM 43.3503 -115.8503 117° Southeast 422 486 16,500  Level Salt Lake Center
05:35PM 43.1767 -115.4769 120° Southeast  Level Estimated
05:35PM 43.2914 -115.6917 117° Southeast 446 513 18,900  Level Salt Lake Center
05:36PM 43.2303 -115.5325 118° Southeast 468 539 21,100 1,980 Climbing Salt Lake Center
05:37PM 43.1708 -115.3756 117° Southeast 485 558 23,100 1,980 Climbing Salt Lake Center
05:38PM 43.0994 -115.1883 118° Southeast 497 572 25,200 1,740 Climbing Salt Lake Center
05:39PM 43.0361 -115.0233 118° Southeast 510 587 26,700 1,560 Climbing Salt Lake Center
05:40PM 42.9594 -114.8236 118° Southeast 528 608 28,500 2,040 Climbing Salt Lake Center
05:41PM 42.8947 -114.6561 118° Southeast 521 600 30,900 1,980 Climbing Salt Lake Center
05:42PM 42.8328 -114.5014 119° Southeast 505 581 32,600 1,020 Climbing Salt Lake Center
05:43PM 42.7533 -114.3003 118° Southeast 504 580 33,000 180 Climbing Salt Lake Center
05:44PM 42.6872 -114.1303 118° Southeast 508 585 33,000  Level Salt Lake Center
05:45PM 42.6206 -113.9625 118° Southeast 507 583 33,000  Level Salt Lake Center
05:46PM 42.5400 -113.8058 125° Southeast 506 582 33,000 -240 Level Salt Lake Center
05:47PM 42.4383 -113.6750 136° Southeast 504 580 32,600 -1,080 Descending Salt Lake Center
05:48PM 42.3397 -113.5436 135° Southeast 499 574 30,800 -1,800 Descending Salt Lake Center
05:50PM 42.2408 -113.4119 135° Southeast 499 574 29,000 -900 Descending Salt Lake Center
05:51PM 42.1197 -113.2525 136° Southeast 507 583 29,000  Level Salt Lake Center
05:52PM 42.0217 -113.1233 136° Southeast 499 574 29,000 -1,080 Level Salt Lake Center
05:53PM 41.9222 -112.9953 136° Southeast 496 571 26,900 -2,280 Descending Salt Lake Center
05:54PM 41.8278 -112.8708 136° Southeast 481 554 24,400 -2,460 Descending Salt Lake Center
05:55PM 41.7372 -112.7533 136° Southeast 460 529 21,900 -2,580 Descending Salt Lake Center
05:56PM 41.6469 -112.6247 133° Southeast 443 510 19,200 -2,220 Descending Salt Lake Center
05:57PM 41.5644 -112.5336 140° Southeast 423 487 17,400 -1,680 Descending Salt Lake Center
05:57PM 41.5350 -112.4878 131° Southeast 414 476 17,000 -1,260 Descending Salt Lake Center
05:58PM 41.4611 -112.4283 149° Southeast 390 449 16,100 -1,200 Descending Salt Lake Center
05:59PM 41.3694 -112.3636 152° Southeast 376 433 14,900 -1,200 Descending Salt Lake Center
06:00PM 41.2794 -112.2994 152° Southeast 369 425 13,700 -1,080 Descending Salt Lake Center
06:01PM 41.1931 -112.2367 151° Southeast 356 410 12,800 -840 Descending Salt Lake Center
06:01PM 41.1567 -112.2072 149° Southeast 353 406 12,500 -600 Descending Salt Lake Center
06:02PM 41.1092 -112.1717 151° Southeast 352 405 12,200 -600 Descending Salt Lake Center
06:02PM 41.0764 -112.1489 152° Southeast 351 404 12,000 -540 Descending Salt Lake Center
06:03PM 41.0208 -112.1342 169° South 340 391 11,700 -660 Descending Salt Lake Center
06:03PM 40.9706 -112.1250 172° South 339 390 11,300 -540 Descending Salt Lake Center
06:04PM 40.8967 -112.1103 171° South 295 339 11,000 -180 Descending Salt Lake Center
06:05PM 40.8456 -112.1031 174° South 252 290 11,000  Level Salt Lake Center
06:05PM 40.8286 -112.1022 178° South 242 278 11,000 -300 Level Salt Lake Center
06:06PM 40.7822 -112.0950 173° South 232 267 10,700 -840 Descending Salt Lake Center
06:07PM 40.7192 -112.0881 175° South 228 262 9,600 -1,080 Descending Salt Lake Center
06:08PM 40.6636 -112.0844 177° South 223 257 8,700 -1,080 Descending Salt Lake Center